Accueil
METAR-TAF:

METAR-TAF

Aéroports :

Aéroport international Antonio-B.-Won-Pat de Guam

Hagåtña, Guam, États-Unis

latitude: 13-29N, longitude: 144-48E, altitude: 91 m

Observation

Le bulletin a été fait il y a 46 minutes, à 11:54 UTC
Vent 3 kt de est
Température 29°C
Humidité 89%
Pression 1011 hPa
Visibilité: 16.1 km
Ciel clair

METAR: PGUM 181154Z 08003KT 10SM CLR 29/27 A2985 RMK AO2 SLP099 T02890267 10311 20283 53013

Heure: 22:40 (12:40 UTC)

Prévision

Le bulletin a été fait il y a 1 heure et 6 minutes, à 11:34 UTC
Prévision valable du 18 à 12 UTC au 19 à 18 UTC
Vent 8 kt de nord-est
Visibilité: 10 km
Quelques nuages à une hauteur de 1800 ft
Nuages épars à une hauteur de 4000 ft

TAF: PGUM 181134Z 1812/1918 05008KT P6SM FEW018 SCT040

Observations et prévisions météorologiques de plus de 4000 aéroports (messages METAR et TAF).

Les stations disponibles sont représentées par des disques jaunes et rouges sur la carte.

Passer la souris dessus pour voir le nom de la station.

Cliquer dessus pour voir les observations et prévisions météorologiques.

Pour changer de carte: cliquez sur les boutons verts avec une croix noire pour zoomer, sur le bouton vert avec un tiret pour effectuer un zoom arrière, ou sur les flèches vertes pour les cartes adjacentes.


METAR-TAF: